createdAt,value
2018-04-29T00:02:22.003Z,13.40
2018-04-29T00:04:49.505Z,13.40
2018-04-29T00:07:17.028Z,13.40
2018-04-29T00:09:44.678Z,13.40
2018-04-29T00:12:12.204Z,13.40
2018-04-29T00:14:39.813Z,13.40
2018-04-29T00:17:07.927Z,13.50
2018-04-29T00:19:35.469Z,13.50
2018-04-29T00:22:03.213Z,13.40
2018-04-29T00:24:30.722Z,13.40
2018-04-29T00:26:58.239Z,13.40
2018-04-29T00:29:25.983Z,13.30
2018-04-29T00:31:53.474Z,13.30
2018-04-29T00:34:21.116Z,13.30
2018-04-29T00:36:48.643Z,13.30
2018-04-29T00:39:17.562Z,13.30
2018-04-29T00:41:45.326Z,13.20
2018-04-29T00:44:13.094Z,13.10
2018-04-29T00:46:40.596Z,13.10
2018-04-29T00:49:08.317Z,13.00
2018-04-29T00:51:47.750Z,13.00
2018-04-29T00:54:15.280Z,13.00
2018-04-29T00:56:42.794Z,12.90
2018-04-29T00:59:10.330Z,12.90
2018-04-29T01:01:37.890Z,12.90
2018-04-29T01:04:05.424Z,12.90
2018-04-29T01:06:32.926Z,12.80
2018-04-29T01:09:00.571Z,12.90
2018-04-29T01:11:28.070Z,12.90
2018-04-29T01:13:55.609Z,12.90
2018-04-29T01:16:23.116Z,12.90
2018-04-29T01:18:50.674Z,12.90
2018-04-29T01:21:19.085Z,12.90
2018-04-29T01:23:47.399Z,12.90
2018-04-29T01:26:14.912Z,12.90
2018-04-29T01:28:42.430Z,12.80
2018-04-29T01:31:10.130Z,12.80
2018-04-29T01:33:37.645Z,12.90
2018-04-29T01:36:05.159Z,12.90
2018-04-29T01:38:32.777Z,12.80
2018-04-29T01:41:00.281Z,12.80
2018-04-29T01:43:28.024Z,12.80
2018-04-29T01:45:55.791Z,12.80
2018-04-29T01:48:23.548Z,12.90
2018-04-29T01:50:51.049Z,12.90
2018-04-29T01:53:19.305Z,12.90
2018-04-29T01:55:47.623Z,12.90
2018-04-29T01:58:15.129Z,12.90
2018-04-29T02:00:43.405Z,12.90
2018-04-29T02:03:11.053Z,12.90
2018-04-29T02:05:38.813Z,12.90
2018-04-29T02:08:06.339Z,12.80
2018-04-29T02:10:34.222Z,12.80
2018-04-29T02:13:01.773Z,12.80
2018-04-29T02:15:29.282Z,12.80
2018-04-29T02:17:56.784Z,12.90
2018-04-29T02:20:24.902Z,12.80
2018-04-29T02:22:52.408Z,12.80
2018-04-29T02:25:19.999Z,12.80
2018-04-29T02:27:47.766Z,12.80
2018-04-29T02:30:15.405Z,12.80
2018-04-29T02:32:42.989Z,12.80
2018-04-29T02:35:10.503Z,12.80
2018-04-29T02:37:38.018Z,12.80
2018-04-29T02:40:05.542Z,12.70
2018-04-29T02:42:33.118Z,12.70
2018-04-29T02:45:00.881Z,12.70
2018-04-29T02:47:28.954Z,12.70
2018-04-29T02:49:56.492Z,12.60
2018-04-29T02:52:23.994Z,12.60
2018-04-29T02:54:51.631Z,12.60
2018-04-29T02:57:19.135Z,12.50
2018-04-29T02:59:46.854Z,12.50
2018-04-29T03:02:14.646Z,12.50
2018-04-29T03:04:42.387Z,12.50
2018-04-29T03:07:09.882Z,12.40
2018-04-29T03:09:37.422Z,12.40
2018-04-29T03:12:04.944Z,12.30
2018-04-29T03:14:32.521Z,12.30
2018-04-29T03:17:00.046Z,12.20
2018-04-29T03:19:27.742Z,12.20
2018-04-29T03:21:55.263Z,12.20
2018-04-29T03:24:22.781Z,12.20
2018-04-29T03:26:50.410Z,12.10
2018-04-29T03:29:17.957Z,12.10
2018-04-29T03:31:45.473Z,12.00
2018-04-29T03:34:12.990Z,11.90
2018-04-29T03:36:40.514Z,11.90
2018-04-29T03:39:08.046Z,11.90
2018-04-29T03:41:35.771Z,11.90
2018-04-29T03:44:03.539Z,11.80
2018-04-29T03:46:31.282Z,11.80
2018-04-29T03:48:58.820Z,11.80
2018-04-29T03:51:26.817Z,11.70
2018-04-29T03:53:54.582Z,11.70
2018-04-29T03:56:22.346Z,11.70
2018-04-29T03:59:01.788Z,11.70
2018-04-29T04:01:51.280Z,11.70
2018-04-29T04:04:09.289Z,11.80
2018-04-29T04:06:36.810Z,11.70
2018-04-29T04:09:04.326Z,11.70
2018-04-29T04:11:31.966Z,11.60
2018-04-29T04:13:59.487Z,11.70
2018-04-29T04:16:26.993Z,11.70
2018-04-29T04:18:54.513Z,11.70
2018-04-29T04:21:22.094Z,11.70
2018-04-29T04:23:49.618Z,11.70
2018-04-29T04:26:17.119Z,11.70
2018-04-29T04:28:44.618Z,11.90
2018-04-29T04:31:12.221Z,11.90
2018-04-29T04:33:40.266Z,11.90
2018-04-29T04:36:07.894Z,11.90
2018-04-29T04:38:36.173Z,11.90
2018-04-29T04:41:03.874Z,11.90
2018-04-29T04:43:31.664Z,11.80
2018-04-29T04:45:59.437Z,11.80
2018-04-29T04:48:26.968Z,12.00
2018-04-29T04:50:54.483Z,12.10
2018-04-29T04:53:22.752Z,12.10
2018-04-29T04:55:50.270Z,12.10
2018-04-29T04:58:17.934Z,12.10
2018-04-29T05:00:45.450Z,12.10
2018-04-29T05:03:12.958Z,12.30
2018-04-29T05:05:40.475Z,12.30
2018-04-29T05:08:08.068Z,12.30
2018-04-29T05:10:35.608Z,12.40
2018-04-29T05:13:03.123Z,12.50
2018-04-29T05:15:31.666Z,12.60
2018-04-29T05:17:59.179Z,12.50
2018-04-29T05:20:27.194Z,12.70
2018-04-29T05:22:54.701Z,12.80
2018-04-29T05:25:22.415Z,12.70
2018-04-29T05:27:49.921Z,12.80
2018-04-29T05:30:17.633Z,12.90
2018-04-29T05:32:45.168Z,12.90
2018-04-29T05:35:12.854Z,12.90
2018-04-29T05:37:40.365Z,12.80
2018-04-29T05:40:08.077Z,12.80
2018-04-29T05:42:35.850Z,12.80
2018-04-29T05:45:03.374Z,12.80
2018-04-29T05:47:31.064Z,12.80
2018-04-29T05:49:58.577Z,12.90
2018-04-29T05:52:26.286Z,12.90
2018-04-29T05:54:53.790Z,13.00
2018-04-29T05:57:21.312Z,13.20
2018-04-29T05:59:48.967Z,13.20
2018-04-29T06:02:16.723Z,13.30
2018-04-29T06:04:44.224Z,13.40
2018-04-29T06:07:12.555Z,13.90
2018-04-29T06:09:40.062Z,13.90
2018-04-29T06:12:08.102Z,14.10
2018-04-29T06:14:35.722Z,14.40
2018-04-29T06:17:04.339Z,14.40
2018-04-29T06:19:31.991Z,14.20
2018-04-29T06:21:59.506Z,14.10
2018-04-29T06:24:27.015Z,13.90
2018-04-29T06:26:54.539Z,14.30
2018-04-29T06:29:22.041Z,14.80
2018-04-29T06:31:49.572Z,14.70
2018-04-29T06:34:17.323Z,14.80
2018-04-29T06:36:45.106Z,14.90
2018-04-29T06:39:12.739Z,15.20
2018-04-29T06:41:40.248Z,14.80
2018-04-29T06:44:07.758Z,14.60
2018-04-29T06:46:35.289Z,14.60
2018-04-29T06:49:02.817Z,14.90
2018-04-29T06:51:30.339Z,14.80
2018-04-29T06:53:57.916Z,14.90
2018-04-29T06:56:25.434Z,14.80
2018-04-29T06:58:52.958Z,15.00
2018-04-29T07:01:20.489Z,14.70
2018-04-29T07:03:48.055Z,14.60
2018-04-29T07:06:15.582Z,14.90
2018-04-29T07:08:43.279Z,14.90
2018-04-29T07:11:11.026Z,14.70
2018-04-29T07:13:38.797Z,14.90
2018-04-29T07:16:06.314Z,14.90
2018-04-29T07:18:33.818Z,14.80
2018-04-29T07:21:01.343Z,14.80
2018-04-29T07:23:28.926Z,14.90
2018-04-29T07:25:56.545Z,15.30
2018-04-29T07:28:24.814Z,15.30
2018-04-29T07:30:52.488Z,15.30
2018-04-29T07:33:20.285Z,15.50
2018-04-29T07:35:47.809Z,15.50
2018-04-29T07:38:15.487Z,15.60
2018-04-29T07:40:42.997Z,15.90
2018-04-29T07:43:10.514Z,15.80
2018-04-29T07:45:38.024Z,15.80
2018-04-29T07:48:06.353Z,15.70
2018-04-29T07:50:33.870Z,15.70
2018-04-29T07:53:01.387Z,15.20
2018-04-29T07:55:29.011Z,15.60
2018-04-29T07:57:56.677Z,15.40
2018-04-29T08:00:24.473Z,15.50
2018-04-29T08:02:52.230Z,15.70
2018-04-29T08:05:19.729Z,15.70
2018-04-29T08:07:47.421Z,15.60
2018-04-29T08:10:15.211Z,15.90
2018-04-29T08:12:42.732Z,16.10
2018-04-29T08:15:10.247Z,16.00
2018-04-29T08:17:37.770Z,16.20
2018-04-29T08:20:05.336Z,16.10
2018-04-29T08:22:32.877Z,16.00
2018-04-29T08:25:00.538Z,15.80
2018-04-29T08:27:28.061Z,16.10
2018-04-29T08:29:55.579Z,16.30
2018-04-29T08:32:23.101Z,16.20
2018-04-29T08:34:50.690Z,16.20
2018-04-29T08:37:18.202Z,16.40
2018-04-29T08:39:45.910Z,16.20
2018-04-29T08:42:13.430Z,16.10
2018-04-29T08:44:41.105Z,16.30
2018-04-29T08:47:08.905Z,16.40
2018-04-29T08:49:36.429Z,16.20
2018-04-29T08:52:04.026Z,16.20
2018-04-29T08:54:31.553Z,16.40
2018-04-29T08:56:59.347Z,16.30
2018-04-29T08:59:26.864Z,16.30
2018-04-29T09:01:54.381Z,16.60
2018-04-29T09:04:21.890Z,16.80
2018-04-29T09:06:49.470Z,17.10
2018-04-29T09:09:17.411Z,17.00
2018-04-29T09:11:44.999Z,17.30
2018-04-29T09:14:12.632Z,17.20
2018-04-29T09:16:40.123Z,17.30
2018-04-29T09:19:07.682Z,17.30
2018-04-29T09:21:35.458Z,17.00
2018-04-29T09:24:03.201Z,16.90
2018-04-29T09:26:30.975Z,17.20
2018-04-29T09:28:58.646Z,17.60
2018-04-29T09:31:26.158Z,17.60
2018-04-29T09:33:53.665Z,17.60
2018-04-29T09:36:21.372Z,17.50
2018-04-29T09:38:48.894Z,17.60
2018-04-29T09:41:16.595Z,17.40
2018-04-29T09:43:44.245Z,17.60
2018-04-29T09:46:11.858Z,17.50
2018-04-29T09:48:39.380Z,17.50
2018-04-29T09:51:07.067Z,17.40
2018-04-29T09:53:34.694Z,17.40
2018-04-29T09:56:02.231Z,17.30
2018-04-29T09:58:29.766Z,17.50
2018-04-29T10:00:57.331Z,17.80
2018-04-29T10:03:24.782Z,17.80
2018-04-29T10:05:53.062Z,17.80
2018-04-29T10:08:20.577Z,17.80
2018-04-29T10:10:48.273Z,17.80
2018-04-29T10:13:16.024Z,17.70
2018-04-29T10:15:44.058Z,17.80
2018-04-29T10:18:11.574Z,17.80
2018-04-29T10:20:39.314Z,17.60
2018-04-29T10:23:06.836Z,17.40
2018-04-29T10:25:34.538Z,17.40
2018-04-29T10:28:02.074Z,17.50
2018-04-29T10:30:29.598Z,17.50
2018-04-29T10:32:57.113Z,17.50
2018-04-29T10:35:24.634Z,17.50
2018-04-29T10:37:52.151Z,17.40
2018-04-29T10:40:19.664Z,17.40
2018-04-29T10:42:47.188Z,17.60
2018-04-29T10:45:14.772Z,17.70
2018-04-29T10:47:42.273Z,17.80
2018-04-29T10:50:10.550Z,17.90
2018-04-29T10:52:38.090Z,17.90
2018-04-29T10:55:05.619Z,17.90
2018-04-29T10:57:33.142Z,18.00
2018-04-29T11:00:01.427Z,18.00
2018-04-29T11:02:29.114Z,18.00
2018-04-29T11:04:56.637Z,18.00
2018-04-29T11:07:24.150Z,18.10
2018-04-29T11:09:51.676Z,18.20
2018-04-29T11:12:19.285Z,18.10
2018-04-29T11:14:46.804Z,18.20
2018-04-29T11:17:14.446Z,18.20
2018-04-29T11:19:41.974Z,18.20
2018-04-29T11:22:09.782Z,18.30
2018-04-29T11:24:37.242Z,18.50
2018-04-29T11:27:04.930Z,18.60
2018-04-29T11:29:32.450Z,18.70
2018-04-29T11:32:00.149Z,18.60
2018-04-29T11:34:27.684Z,18.60
2018-04-29T11:36:55.190Z,18.70
2018-04-29T11:39:22.817Z,18.90
2018-04-29T11:41:50.331Z,18.90
2018-04-29T11:44:17.836Z,19.00
2018-04-29T11:46:45.346Z,19.10
2018-04-29T11:49:13.640Z,18.80
2018-04-29T11:51:41.209Z,18.80
2018-04-29T11:54:08.730Z,18.70
2018-04-29T11:56:36.557Z,18.70
2018-04-29T11:59:04.352Z,18.60
2018-04-29T12:01:32.630Z,18.50
2018-04-29T12:04:00.933Z,18.60
2018-04-29T12:06:28.504Z,18.70
2018-04-29T12:08:56.023Z,18.60
2018-04-29T12:11:23.750Z,18.70
2018-04-29T12:13:51.282Z,18.60
2018-04-29T12:16:19.570Z,18.60
2018-04-29T12:18:47.077Z,18.70
2018-04-29T12:21:15.511Z,18.70
2018-04-29T12:23:43.022Z,18.70
2018-04-29T12:26:11.306Z,18.80
2018-04-29T12:28:38.821Z,18.80
2018-04-29T12:31:06.480Z,18.70
2018-04-29T12:33:34.023Z,18.70
2018-04-29T12:36:02.080Z,18.60
2018-04-29T12:38:29.761Z,18.70
2018-04-29T12:40:57.270Z,18.50
2018-04-29T12:43:25.635Z,18.60
2018-04-29T12:45:53.150Z,18.60
2018-04-29T12:48:20.822Z,18.80
2018-04-29T12:50:48.338Z,19.00
2018-04-29T12:53:16.009Z,19.00
2018-04-29T12:55:44.401Z,19.00
2018-04-29T12:58:12.057Z,19.00
2018-04-29T13:00:39.620Z,18.70
2018-04-29T13:03:07.162Z,18.70
2018-04-29T13:05:34.936Z,18.60
2018-04-29T13:08:02.534Z,18.60
2018-04-29T13:10:30.054Z,18.60
2018-04-29T13:12:57.564Z,18.60
2018-04-29T13:15:25.903Z,18.70
2018-04-29T13:17:53.676Z,18.70
2018-04-29T13:20:21.189Z,18.80
2018-04-29T13:22:48.707Z,18.70
2018-04-29T13:25:16.361Z,18.50
2018-04-29T13:27:43.886Z,18.30
2018-04-29T13:30:11.398Z,18.30
2018-04-29T13:32:39.677Z,18.40
2018-04-29T13:35:07.417Z,18.40
2018-04-29T13:37:36.433Z,18.40
2018-04-29T13:40:04.341Z,18.40
2018-04-29T13:42:31.942Z,18.40
2018-04-29T13:44:59.466Z,18.50
2018-04-29T13:47:26.976Z,18.60
2018-04-29T13:49:55.195Z,18.70
2018-04-29T13:52:22.920Z,18.80
2018-04-29T13:54:50.343Z,18.90
2018-04-29T13:57:17.893Z,18.90
2018-04-29T13:59:45.406Z,19.00
2018-04-29T14:02:12.984Z,19.00
2018-04-29T14:04:40.546Z,19.10
2018-04-29T14:07:08.370Z,19.20
2018-04-29T14:09:35.868Z,19.10
2018-04-29T14:12:03.366Z,19.20
2018-04-29T14:14:31.011Z,19.20
2018-04-29T14:16:58.770Z,19.10
2018-04-29T14:19:26.294Z,19.10
2018-04-29T14:21:53.809Z,19.20
2018-04-29T14:24:21.315Z,19.40
2018-04-29T14:26:48.940Z,19.50
2018-04-29T14:29:16.584Z,19.40
2018-04-29T14:31:44.104Z,19.50
2018-04-29T14:34:12.681Z,19.50
2018-04-29T14:36:40.241Z,19.50
2018-04-29T14:39:07.703Z,19.50
2018-04-29T14:41:35.216Z,19.50
2018-04-29T14:44:02.726Z,19.20
2018-04-29T14:46:30.395Z,19.20
2018-04-29T14:48:57.908Z,19.30
2018-04-29T14:51:26.218Z,19.40
2018-04-29T14:53:53.932Z,19.40
2018-04-29T14:56:21.446Z,19.50
2018-04-29T14:58:49.222Z,19.40
2018-04-29T15:01:16.741Z,19.20
2018-04-29T15:03:44.420Z,19.40
2018-04-29T15:06:11.943Z,19.70
2018-04-29T15:08:39.475Z,19.60
2018-04-29T15:11:07.964Z,19.70
2018-04-29T15:13:36.242Z,19.30
2018-04-29T15:16:05.263Z,19.10
2018-04-29T15:18:44.463Z,19.10
2018-04-29T15:21:13.090Z,19.10
2018-04-29T15:23:40.590Z,19.10
2018-04-29T15:26:08.561Z,19.10
2018-04-29T15:28:36.765Z,19.00
2018-04-29T15:31:04.290Z,19.10
2018-04-29T15:33:31.811Z,19.00
2018-04-29T15:35:59.334Z,19.10
2018-04-29T15:38:27.605Z,19.00
2018-04-29T15:40:55.325Z,18.90
2018-04-29T15:43:22.837Z,19.30
2018-04-29T15:45:52.714Z,19.30
2018-04-29T15:48:20.231Z,19.40
2018-04-29T15:50:47.741Z,19.40
2018-04-29T15:53:15.254Z,19.40
2018-04-29T15:55:42.834Z,19.40
2018-04-29T15:58:11.333Z,19.40
2018-04-29T16:00:38.748Z,19.70
2018-04-29T16:03:07.055Z,19.60
2018-04-29T16:05:34.594Z,19.70
2018-04-29T16:08:02.278Z,19.50
2018-04-29T16:10:29.803Z,19.60
2018-04-29T16:12:57.489Z,19.70
2018-04-29T16:15:25.010Z,19.70
2018-04-29T16:17:52.580Z,19.70
2018-04-29T16:20:20.248Z,19.50
2018-04-29T16:22:47.942Z,19.40
2018-04-29T16:25:15.459Z,19.10
2018-04-29T16:27:43.146Z,19.10
2018-04-29T16:30:10.921Z,18.90
2018-04-29T16:32:38.450Z,18.90
2018-04-29T16:35:05.957Z,18.80
2018-04-29T16:37:33.700Z,18.60
2018-04-29T16:40:01.352Z,18.60
2018-04-29T16:42:28.885Z,18.60
2018-04-29T16:44:56.709Z,18.50
2018-04-29T16:47:25.000Z,18.50
2018-04-29T16:49:52.713Z,18.50
2018-04-29T16:52:20.289Z,18.50
2018-04-29T16:54:47.930Z,18.40
2018-04-29T16:57:15.450Z,18.30
2018-04-29T16:59:43.121Z,18.30
2018-04-29T17:02:10.634Z,18.20
2018-04-29T17:04:38.995Z,18.20
2018-04-29T17:07:06.515Z,18.10
2018-04-29T17:09:34.291Z,18.10
2018-04-29T17:12:01.982Z,17.80
2018-04-29T17:14:29.486Z,17.80
2018-04-29T17:16:57.041Z,17.60
2018-04-29T17:19:25.326Z,17.30
2018-04-29T17:21:53.022Z,17.30
2018-04-29T17:24:20.533Z,17.40
2018-04-29T17:26:48.056Z,17.30
2018-04-29T17:29:16.771Z,17.00
2018-04-29T17:31:44.200Z,17.00
2018-04-29T17:34:11.843Z,16.90
2018-04-29T17:36:39.355Z,16.80
2018-04-29T17:39:07.061Z,16.60
2018-04-29T17:41:34.829Z,16.40
2018-04-29T17:44:02.360Z,16.20
2018-04-29T17:46:29.866Z,16.00
2018-04-29T17:48:57.376Z,16.10
2018-04-29T17:51:24.894Z,16.10
2018-04-29T17:53:52.413Z,16.30
2018-04-29T17:56:19.933Z,16.10
2018-04-29T17:58:47.650Z,16.00
2018-04-29T18:01:15.419Z,16.00
2018-04-29T18:03:42.933Z,16.00
2018-04-29T18:06:10.443Z,15.90
2018-04-29T18:08:38.091Z,15.90
2018-04-29T18:11:05.842Z,15.90
2018-04-29T18:13:33.608Z,15.80
2018-04-29T18:16:01.122Z,15.50
2018-04-29T18:18:28.797Z,15.60
2018-04-29T18:20:56.329Z,15.40
2018-04-29T18:23:24.233Z,15.30
2018-04-29T18:25:52.238Z,15.30
2018-04-29T18:28:19.859Z,15.50
2018-04-29T18:30:47.369Z,15.40
2018-04-29T18:33:15.669Z,15.30
2018-04-29T18:35:43.194Z,15.10
2018-04-29T18:38:10.701Z,15.10
2018-04-29T18:40:38.237Z,15.10
2018-04-29T18:43:06.823Z,15.20
2018-04-29T18:45:34.814Z,15.20
2018-04-29T18:48:02.330Z,14.90
2018-04-29T18:50:30.093Z,14.80
2018-04-29T18:52:57.584Z,14.80
2018-04-29T18:55:25.277Z,14.80
2018-04-29T18:57:53.121Z,14.90
2018-04-29T19:00:20.620Z,14.90
2018-04-29T19:02:48.159Z,14.80
2018-04-29T19:05:15.662Z,15.00
2018-04-29T19:07:43.202Z,15.00
2018-04-29T19:10:10.946Z,15.00
2018-04-29T19:12:38.706Z,15.00
2018-04-29T19:15:06.251Z,15.00
2018-04-29T19:17:33.902Z,15.00
2018-04-29T19:20:01.418Z,14.80
2018-04-29T19:22:29.144Z,14.70
2018-04-29T19:24:56.662Z,14.80
2018-04-29T19:27:24.348Z,14.80
2018-04-29T19:29:52.140Z,14.70
2018-04-29T19:32:19.649Z,14.70
2018-04-29T19:34:47.348Z,14.70
2018-04-29T19:37:15.119Z,14.70
2018-04-29T19:39:42.638Z,14.60
2018-04-29T19:42:10.815Z,14.60
2018-04-29T19:44:38.369Z,14.50
2018-04-29T19:47:06.394Z,14.50
2018-04-29T19:49:33.954Z,14.30
2018-04-29T19:52:01.693Z,14.40
2018-04-29T19:54:29.194Z,14.50
2018-04-29T19:56:57.705Z,14.20
2018-04-29T19:59:25.202Z,14.30
2018-04-29T20:01:52.722Z,14.30
2018-04-29T20:04:20.242Z,14.50
2018-04-29T20:06:47.954Z,14.50
2018-04-29T20:09:15.739Z,14.50
2018-04-29T20:11:43.242Z,14.60
2018-04-29T20:14:11.474Z,14.60
2018-04-29T20:16:39.039Z,14.50
2018-04-29T20:19:06.803Z,14.80
2018-04-29T20:21:34.320Z,14.40
2018-04-29T20:24:01.966Z,14.20
2018-04-29T20:26:29.489Z,13.90
2018-04-29T20:28:57.465Z,13.90
2018-04-29T20:31:24.999Z,13.80
2018-04-29T20:33:52.502Z,13.50
2018-04-29T20:36:20.206Z,13.50
2018-04-29T20:38:47.741Z,13.60
2018-04-29T20:41:15.263Z,13.80
2018-04-29T20:43:43.560Z,13.80
2018-04-29T20:46:11.326Z,13.80
2018-04-29T20:48:39.026Z,13.40
2018-04-29T20:51:06.786Z,13.40
2018-04-29T20:53:34.406Z,13.30
2018-04-29T20:56:02.126Z,13.30
2018-04-29T20:58:29.750Z,13.20
2018-04-29T21:00:57.287Z,13.30
2018-04-29T21:03:24.803Z,13.40
2018-04-29T21:05:52.318Z,13.30
2018-04-29T21:08:19.935Z,13.30
2018-04-29T21:10:48.016Z,13.20
2018-04-29T21:13:15.650Z,13.00
2018-04-29T21:15:43.250Z,13.10
2018-04-29T21:18:10.973Z,13.10
2018-04-29T21:20:38.498Z,13.20
2018-04-29T21:23:06.793Z,13.30
2018-04-29T21:25:34.899Z,13.20
2018-04-29T21:28:03.165Z,13.20
2018-04-29T21:30:30.787Z,13.10
2018-04-29T21:32:58.764Z,13.00
2018-04-29T21:35:26.439Z,13.10
2018-04-29T21:37:54.802Z,13.00
2018-04-29T21:40:22.289Z,13.10
2018-04-29T21:42:50.018Z,12.90
2018-04-29T21:45:19.451Z,13.00
2018-04-29T21:47:47.618Z,12.90
2018-04-29T21:50:17.581Z,13.00
2018-04-29T21:52:45.846Z,12.70
2018-04-29T21:55:13.756Z,12.70
2018-04-29T21:57:41.460Z,12.70
2018-04-29T22:00:10.692Z,12.80
2018-04-29T22:02:38.335Z,12.80
2018-04-29T22:05:06.819Z,12.90
2018-04-29T22:07:37.122Z,12.80
2018-04-29T22:10:06.670Z,12.70
2018-04-29T22:12:34.986Z,12.70
2018-04-29T22:15:02.750Z,12.80
2018-04-29T22:17:30.405Z,12.90
2018-04-29T22:19:59.035Z,12.80
2018-04-29T22:22:27.748Z,12.80
2018-04-29T22:24:59.188Z,12.70
2018-04-29T22:27:29.970Z,12.60
2018-04-29T22:29:57.950Z,12.80
2018-04-29T22:32:27.400Z,12.80
2018-04-29T22:34:55.792Z,12.90
2018-04-29T22:37:26.282Z,12.90
2018-04-29T22:39:53.798Z,13.00
2018-04-29T22:42:21.303Z,12.90
2018-04-29T22:44:50.104Z,12.90
2018-04-29T22:47:17.601Z,13.00
2018-04-29T22:49:45.127Z,13.10
2018-04-29T22:52:16.620Z,12.90
2018-04-29T22:54:49.094Z,13.10
2018-04-29T22:57:16.803Z,13.20
2018-04-29T22:59:45.128Z,13.10
2018-04-29T23:02:14.744Z,13.20
2018-04-29T23:04:42.274Z,13.20
2018-04-29T23:07:09.783Z,13.20
2018-04-29T23:09:40.488Z,13.20
2018-04-29T23:12:08.000Z,13.20
2018-04-29T23:14:35.811Z,13.20
2018-04-29T23:17:06.687Z,13.30
2018-04-29T23:19:34.472Z,13.30
2018-04-29T23:22:01.986Z,13.10
2018-04-29T23:24:30.269Z,13.20
2018-04-29T23:26:57.795Z,13.10
2018-04-29T23:29:25.430Z,13.20
2018-04-29T23:31:53.205Z,13.10
2018-04-29T23:34:21.145Z,13.00
2018-04-29T23:36:48.756Z,12.90
2018-04-29T23:39:16.498Z,13.00
2018-04-29T23:41:44.255Z,13.00
2018-04-29T23:44:11.778Z,13.00
2018-04-29T23:46:39.302Z,13.00
2018-04-29T23:49:06.827Z,13.00
2018-04-29T23:51:34.396Z,13.00
2018-04-29T23:54:01.910Z,13.00
2018-04-29T23:56:29.422Z,12.90
2018-04-29T23:58:56.942Z,12.90
